Time;durP1;ratioP1;P1;durP2;ratioP2;P2;SDS_P1;SDS_P2;PMS_P1;PMS_P2;Temp;Humidity;BMP_temperature;BMP_pressure;BME280_temperature;BME280_humidity;BME280_pressure;Samples;Min_cycle;Max_cycle;Signal;HPM_P1;HPM_P2
2024/03/17 00:02:22;;;;;;;0.90;0.90;;;;;;;;;;5049920;28;20240;-85
2024/03/17 00:04:48;;;;;;;0.40;0.40;;;;;;;;;;5058076;28;20224;-85
2024/03/17 00:07:15;;;;;;;0.30;0.30;;;;;;;;;;5083988;28;20258;-85
2024/03/17 00:09:42;;;;;;;0.47;0.47;;;;;;;;;;5083793;28;20240;-85
2024/03/17 00:12:08;;;;;;;1.80;1.07;;;;;;;;;;5065745;28;20209;-85
2024/03/17 00:14:35;;;;;;;0.50;0.50;;;;;;;;;;5048246;28;20239;-85
2024/03/17 00:17:04;;;;;;;0.40;0.40;;;;;;;;;;5064205;28;20285;-84
2024/03/17 00:19:30;;;;;;;0.63;0.63;;;;;;;;;;5080930;28;20323;-85
2024/03/17 00:21:56;;;;;;;0.97;0.97;;;;;;;;;;5047945;28;20200;-86
2024/03/17 00:24:22;;;;;;;0.90;0.90;;;;;;;;;;5066617;28;21103;-86
2024/03/17 00:26:51;;;;;;;0.67;0.60;;;;;;;;;;5064950;28;20239;-86
2024/03/17 00:29:17;;;;;;;1.10;1.00;;;;;;;;;;5083890;28;20236;-86
2024/03/17 00:31:43;;;;;;;0.70;0.70;;;;;;;;;;5064894;28;20244;-87
2024/03/17 00:34:10;;;;;;;0.77;0.77;;;;;;;;;;5065647;28;20323;-84
2024/03/17 00:36:36;;;;;;;0.70;0.70;;;;;;;;;;5083788;28;20211;-85
2024/03/17 00:39:03;;;;;;;5.50;3.17;;;;;;;;;;5065919;28;20291;-84
2024/03/17 00:41:29;;;;;;;4.47;3.17;;;;;;;;;;5048886;28;21140;-86
2024/03/17 00:43:55;;;;;;;5.83;4.47;;;;;;;;;;5065910;28;20239;-85
2024/03/17 00:46:22;;;;;;;3.57;2.43;;;;;;;;;;5065934;28;20682;-86
2024/03/17 00:48:49;;;;;;;2.40;1.47;;;;;;;;;;5083037;28;20235;-86
2024/03/17 00:51:15;;;;;;;0.70;0.67;;;;;;;;;;5047402;28;20269;-86
2024/03/17 00:53:41;;;;;;;0.80;0.80;;;;;;;;;;5082170;28;20228;-86
2024/03/17 00:56:08;;;;;;;1.00;0.90;;;;;;;;;;5065823;28;20588;-86
2024/03/17 00:58:34;;;;;;;1.80;1.70;;;;;;;;;;5048618;28;21133;-87
2024/03/17 01:01:00;;;;;;;0.40;0.40;;;;;;;;;;5048414;28;20252;-86
2024/03/17 01:03:29;;;;;;;0.53;0.53;;;;;;;;;;5049166;28;20204;-86
2024/03/17 01:05:55;;;;;;;0.70;0.70;;;;;;;;;;5049485;28;20281;-86
2024/03/17 01:08:21;;;;;;;0.50;0.50;;;;;;;;;;5083035;28;20262;-86
2024/03/17 01:10:49;;;;;;;0.50;0.50;;;;;;;;;;5083373;28;20232;-86
2024/03/17 01:13:16;;;;;;;0.60;0.60;;;;;;;;;;5053292;28;20254;-86
2024/03/17 01:15:42;;;;;;;0.70;0.70;;;;;;;;;;5060009;28;20212;-84
2024/03/17 01:18:09;;;;;;;1.23;1.13;;;;;;;;;;5086967;28;20290;-85
2024/03/17 01:20:35;;;;;;;0.73;0.60;;;;;;;;;;5053190;28;20240;-85
2024/03/17 01:23:02;;;;;;;0.60;0.60;;;;;;;;;;5087143;28;20248;-85
2024/03/17 01:25:29;;;;;;;0.50;0.50;;;;;;;;;;5086783;28;20599;-86
2024/03/17 01:27:56;;;;;;;0.60;0.60;;;;;;;;;;5068333;28;21075;-85
2024/03/17 01:30:22;;;;;;;0.73;0.73;;;;;;;;;;5085892;28;20220;-86
2024/03/17 01:32:51;;;;;;;0.40;0.40;;;;;;;;;;5067241;28;20228;-86
2024/03/17 01:35:18;;;;;;;0.57;0.53;;;;;;;;;;5053575;28;20239;-86
2024/03/17 01:37:44;;;;;;;0.80;0.77;;;;;;;;;;5086687;28;20240;-87
2024/03/17 01:40:10;;;;;;;1.00;1.00;;;;;;;;;;5059264;28;20240;-86
2024/03/17 01:42:37;;;;;;;2.47;1.00;;;;;;;;;;5069403;28;20240;-86
2024/03/17 01:45:19;;;;;;;0.50;0.50;;;;;;;;;;5050773;28;20221;-87
2024/03/17 01:47:46;;;;;;;0.40;0.40;;;;;;;;;;5085024;28;20224;-87
2024/03/17 01:50:13;;;;;;;0.70;0.70;;;;;;;;;;5068237;28;20697;-86
2024/03/17 01:52:39;;;;;;;0.80;0.80;;;;;;;;;;5086513;28;20232;-86
2024/03/17 01:55:05;;;;;;;0.40;0.40;;;;;;;;;;5052470;28;20236;-87
2024/03/17 01:57:32;;;;;;;0.47;0.47;;;;;;;;;;5053057;28;20212;-87
2024/03/17 01:59:58;;;;;;;1.27;0.70;;;;;;;;;;5052283;28;20229;-87
2024/03/17 02:02:25;;;;;;;0.60;0.60;;;;;;;;;;5051651;28;20244;-85
2024/03/17 02:04:51;;;;;;;7.33;0.97;;;;;;;;;;5068410;28;20242;-86
2024/03/17 02:07:17;;;;;;;0.60;0.60;;;;;;;;;;5068431;28;20378;-85
2024/03/17 02:09:43;;;;;;;0.60;0.60;;;;;;;;;;5067729;28;21045;-87
2024/03/17 02:12:11;;;;;;;0.50;0.50;;;;;;;;;;5051910;28;20224;-86
2024/03/17 02:14:37;;;;;;;0.87;0.87;;;;;;;;;;5068504;28;20274;-85
2024/03/17 02:17:04;;;;;;;0.80;0.80;;;;;;;;;;5051254;28;21033;-85
2024/03/17 02:19:30;;;;;;;0.87;0.87;;;;;;;;;;5068213;28;20240;-87
2024/03/17 02:21:56;;;;;;;0.60;0.60;;;;;;;;;;5050182;28;20292;-87
2024/03/17 02:24:22;;;;;;;1.07;1.07;;;;;;;;;;5068870;28;20204;-87
2024/03/17 02:26:48;;;;;;;10.97;0.83;;;;;;;;;;5051591;28;20224;-86
2024/03/17 02:29:14;;;;;;;0.90;0.90;;;;;;;;;;5067565;28;20645;-87
2024/03/17 02:31:40;;;;;;;0.50;0.50;;;;;;;;;;5066508;28;20290;-87
2024/03/17 02:34:07;;;;;;;0.70;0.70;;;;;;;;;;5051349;28;20249;-86
2024/03/17 02:36:33;;;;;;;0.50;0.50;;;;;;;;;;5068665;28;20201;-86
2024/03/17 02:41:45;;;;;;;0.57;0.57;;;;;;;;;;5085019;28;20220;-86
2024/03/17 02:44:12;;;;;;;1.70;1.30;;;;;;;;;;5058440;28;20696;-86
2024/03/17 02:46:38;;;;;;;0.50;0.50;;;;;;;;;;5068172;28;20248;-87
2024/03/17 02:49:05;;;;;;;1.37;0.60;;;;;;;;;;5050736;28;20323;-85
2024/03/17 02:51:31;;;;;;;1.80;1.33;;;;;;;;;;5042611;28;20712;-85
2024/03/17 02:53:59;;;;;;;0.50;0.50;;;;;;;;;;5050714;28;20228;-86
2024/03/17 02:56:25;;;;;;;0.30;0.30;;;;;;;;;;5084174;28;20236;-86
2024/03/17 02:58:51;;;;;;;1.53;1.43;;;;;;;;;;5066601;28;20318;-87
2024/03/17 03:01:19;;;;;;;0.50;0.50;;;;;;;;;;5051330;28;20280;-85
2024/03/17 03:03:45;;;;;;;0.90;0.83;;;;;;;;;;5066720;28;20219;-85
2024/03/17 03:06:13;;;;;;;0.60;0.60;;;;;;;;;;5067124;28;20212;-86
2024/03/17 03:08:40;;;;;;;2.10;0.70;;;;;;;;;;5051015;28;20644;-86
2024/03/17 03:11:13;;;;;;;0.73;0.73;;;;;;;;;;5066773;28;20319;-86
2024/03/17 03:13:40;;;;;;;0.40;0.40;;;;;;;;;;5082851;28;20726;-86
2024/03/17 03:16:10;;;;;;;0.53;0.53;;;;;;;;;;5057535;28;20346;-86
2024/03/17 03:18:37;;;;;;;1.23;0.83;;;;;;;;;;5085445;28;20216;-86
2024/03/17 03:21:03;;;;;;;0.63;0.63;;;;;;;;;;5067106;28;20248;-85
2024/03/17 03:23:30;;;;;;;0.30;0.30;;;;;;;;;;5065818;28;20231;-85
2024/03/17 03:25:57;;;;;;;0.40;0.40;;;;;;;;;;5085025;28;20235;-86
2024/03/17 03:28:23;;;;;;;10.67;1.73;;;;;;;;;;5050503;28;20282;-86
2024/03/17 03:30:51;;;;;;;0.63;0.63;;;;;;;;;;5082786;28;20228;-85
2024/03/17 03:33:17;;;;;;;0.70;0.70;;;;;;;;;;5049712;28;20712;-86
2024/03/17 03:35:44;;;;;;;0.50;0.50;;;;;;;;;;5051311;28;20286;-87
2024/03/17 03:38:11;;;;;;;0.37;0.37;;;;;;;;;;5066620;28;20244;-86
2024/03/17 03:40:37;;;;;;;0.50;0.50;;;;;;;;;;5066005;28;20235;-86
2024/03/17 03:43:03;;;;;;;1.20;0.67;;;;;;;;;;5065807;28;20243;-87
2024/03/17 03:45:29;;;;;;;0.50;0.50;;;;;;;;;;5050417;28;20208;-85
2024/03/17 03:47:55;;;;;;;0.57;0.57;;;;;;;;;;5066141;28;20232;-85
2024/03/17 03:50:22;;;;;;;0.40;0.40;;;;;;;;;;5065344;28;20754;-86
2024/03/17 03:52:49;;;;;;;0.50;0.50;;;;;;;;;;5084141;28;20235;-85
2024/03/17 03:55:16;;;;;;;1.70;1.23;;;;;;;;;;5066513;28;20246;-86
2024/03/17 03:57:45;;;;;;;0.40;0.40;;;;;;;;;;5065527;28;20220;-87
2024/03/17 04:00:12;;;;;;;0.40;0.40;;;;;;;;;;5085192;28;20282;-86
2024/03/17 04:02:42;;;;;;;0.70;0.70;;;;;;;;;;5057621;28;20236;-85
2024/03/17 04:05:08;;;;;;;0.40;0.40;;;;;;;;;;5065857;28;20237;-85
2024/03/17 04:07:35;;;;;;;0.20;0.20;;;;;;;;;;5066214;28;20631;-86
2024/03/17 04:10:02;;;;;;;0.30;0.30;;;;;;;;;;5056924;28;20256;-86
2024/03/17 04:12:30;;;;;;;0.60;0.60;;;;;;;;;;5066485;28;20200;-86
2024/03/17 04:14:57;;;;;;;4.80;0.73;;;;;;;;;;5032490;28;20225;-85
2024/03/17 04:17:24;;;;;;;0.27;0.27;;;;;;;;;;5041112;28;20233;-86
2024/03/17 04:19:50;;;;;;;0.30;0.30;;;;;;;;;;5083271;28;20228;-87
2024/03/17 04:22:17;;;;;;;1.10;0.80;;;;;;;;;;5049689;28;20246;-86
2024/03/17 04:24:47;;;;;;;0.20;0.20;;;;;;;;;;5055273;28;20243;-85
2024/03/17 04:27:13;;;;;;;0.50;0.37;;;;;;;;;;5049115;28;20228;-86
2024/03/17 04:29:40;;;;;;;0.30;0.30;;;;;;;;;;5065456;28;20228;-87
2024/03/17 04:32:06;;;;;;;1.00;1.00;;;;;;;;;;5065676;28;20240;-86
2024/03/17 04:34:32;;;;;;;0.50;0.50;;;;;;;;;;5064812;28;20611;-86
2024/03/17 04:36:59;;;;;;;0.87;0.87;;;;;;;;;;5065150;28;20251;-85
2024/03/17 04:39:25;;;;;;;21.53;1.03;;;;;;;;;;5066154;28;20573;-85
2024/03/17 04:41:52;;;;;;;0.40;0.40;;;;;;;;;;5083101;28;20838;-85
2024/03/17 04:44:18;;;;;;;0.63;0.43;;;;;;;;;;5054614;28;20233;-87
2024/03/17 04:46:44;;;;;;;0.20;0.20;;;;;;;;;;5048060;28;20757;-86
2024/03/17 04:49:10;;;;;;;1.40;0.83;;;;;;;;;;5048365;28;20235;-86
2024/03/17 04:51:36;;;;;;;0.40;0.40;;;;;;;;;;5040627;28;20821;-85
2024/03/17 04:54:07;;;;;;;0.30;0.30;;;;;;;;;;5048787;28;20802;-84
2024/03/17 04:56:33;;;;;;;0.63;0.63;;;;;;;;;;5083537;28;20229;-84
2024/03/17 04:58:59;;;;;;;1.10;0.90;;;;;;;;;;5083272;28;20292;-86
2024/03/17 05:01:25;;;;;;;0.70;0.70;;;;;;;;;;5047658;28;20232;-86
2024/03/17 05:03:52;;;;;;;0.30;0.30;;;;;;;;;;5063161;28;20204;-85
2024/03/17 05:06:18;;;;;;;0.40;0.40;;;;;;;;;;5083261;28;20303;-84
2024/03/17 05:08:45;;;;;;;0.50;0.50;;;;;;;;;;5048267;28;20235;-86
2024/03/17 05:11:14;;;;;;;0.73;0.73;;;;;;;;;;5064856;28;20281;-85
2024/03/17 05:13:40;;;;;;;2.00;1.20;;;;;;;;;;5063831;28;20256;-85
2024/03/17 05:16:06;;;;;;;0.60;0.60;;;;;;;;;;5081190;28;20244;-87
2024/03/17 05:18:32;;;;;;;0.23;0.23;;;;;;;;;;5063687;28;20204;-85
2024/03/17 05:21:03;;;;;;;0.30;0.30;;;;;;;;;;5064516;28;20390;-85
2024/03/17 05:23:30;;;;;;;0.30;0.30;;;;;;;;;;5065532;28;20228;-85
2024/03/17 05:25:57;;;;;;;0.40;0.40;;;;;;;;;;5082831;28;20730;-84
2024/03/17 05:28:23;;;;;;;0.37;0.37;;;;;;;;;;5064823;28;20228;-84
2024/03/17 05:30:50;;;;;;;0.20;0.20;;;;;;;;;;5072695;28;20266;-85
2024/03/17 05:33:21;;;;;;;0.73;0.73;;;;;;;;;;5065473;28;20209;-85
2024/03/17 05:35:55;;;;;;;0.37;0.37;;;;;;;;;;5064992;28;20228;-87
2024/03/17 05:38:21;;;;;;;0.40;0.40;;;;;;;;;;5083626;28;20259;-85
2024/03/17 05:41:01;;;;;;;0.63;0.40;;;;;;;;;;5032444;28;20231;-85
2024/03/17 05:43:27;;;;;;;0.53;0.53;;;;;;;;;;5047544;28;20225;-85
2024/03/17 05:45:54;;;;;;;0.97;0.97;;;;;;;;;;5081544;28;20215;-85
2024/03/17 05:48:21;;;;;;;0.30;0.30;;;;;;;;;;5064264;28;20216;-87
2024/03/17 05:50:47;;;;;;;0.30;0.30;;;;;;;;;;5063782;28;20315;-85
2024/03/17 05:53:13;;;;;;;0.30;0.30;;;;;;;;;;5082512;28;20236;-85
2024/03/17 05:55:42;;;;;;;0.83;0.83;;;;;;;;;;5039741;28;20225;-86
2024/03/17 05:58:09;;;;;;;0.30;0.30;;;;;;;;;;5067947;28;20769;-85
2024/03/17 06:00:35;;;;;;;0.30;0.30;;;;;;;;;;5086860;28;20209;-86
2024/03/17 06:03:02;;;;;;;2.90;1.00;;;;;;;;;;5067829;28;20326;-85
2024/03/17 06:05:28;;;;;;;0.40;0.40;;;;;;;;;;5084629;28;20225;-85
2024/03/17 06:07:54;;;;;;;1.20;1.10;;;;;;;;;;5066787;28;20297;-85
2024/03/17 06:10:24;;;;;;;0.70;0.70;;;;;;;;;;5049620;28;21031;-87
2024/03/17 06:12:51;;;;;;;1.10;1.10;;;;;;;;;;5048772;28;20205;-86
2024/03/17 06:15:17;;;;;;;1.07;1.07;;;;;;;;;;5068561;28;20654;-85
2024/03/17 06:17:43;;;;;;;0.53;0.53;;;;;;;;;;5051429;28;20228;-85
2024/03/17 06:20:13;;;;;;;0.30;0.30;;;;;;;;;;5066958;28;20798;-86
2024/03/17 06:22:40;;;;;;;0.70;0.70;;;;;;;;;;5067736;28;20240;-84
2024/03/17 06:25:09;;;;;;;0.63;0.63;;;;;;;;;;5066685;28;20215;-86
2024/03/17 06:27:35;;;;;;;0.77;0.77;;;;;;;;;;5068359;28;20207;-85
2024/03/17 06:30:06;;;;;;;0.87;0.87;;;;;;;;;;5066769;28;20224;-85
2024/03/17 06:32:33;;;;;;;0.30;0.30;;;;;;;;;;5068384;28;20240;-85
2024/03/17 06:34:59;;;;;;;0.47;0.47;;;;;;;;;;5050612;28;20266;-85
2024/03/17 06:37:25;;;;;;;2.33;0.83;;;;;;;;;;5058796;28;20239;-88
2024/03/17 06:39:52;;;;;;;0.60;0.60;;;;;;;;;;5042682;28;20216;-85
2024/03/17 06:42:18;;;;;;;0.57;0.57;;;;;;;;;;5068195;28;20666;-85
2024/03/17 06:44:44;;;;;;;2.37;0.40;;;;;;;;;;5058871;28;20255;-85
2024/03/17 06:47:10;;;;;;;0.40;0.40;;;;;;;;;;5050866;28;20244;-85
2024/03/17 06:49:36;;;;;;;1.80;1.03;;;;;;;;;;5051028;28;20267;-86
2024/03/17 06:52:02;;;;;;;0.30;0.30;;;;;;;;;;5086093;28;20228;-86
2024/03/17 06:54:28;;;;;;;0.87;0.87;;;;;;;;;;5065940;28;20250;-85
2024/03/17 06:56:55;;;;;;;0.60;0.60;;;;;;;;;;5074824;28;20243;-87
2024/03/17 06:59:21;;;;;;;0.70;0.70;;;;;;;;;;5083385;28;20234;-84
2024/03/17 07:01:47;;;;;;;0.83;0.80;;;;;;;;;;5066950;28;20225;-84
2024/03/17 07:04:13;;;;;;;1.80;1.03;;;;;;;;;;5071748;28;20247;-86
2024/03/17 07:06:40;;;;;;;1.27;1.13;;;;;;;;;;5058228;28;20651;-85
2024/03/17 07:09:06;;;;;;;0.77;0.63;;;;;;;;;;5063960;28;20232;-85
2024/03/17 07:11:32;;;;;;;0.60;0.60;;;;;;;;;;5066326;28;20716;-84
2024/03/17 07:13:58;;;;;;;7.50;0.77;;;;;;;;;;5066535;28;20225;-85
2024/03/17 07:16:25;;;;;;;1.23;0.80;;;;;;;;;;5082471;28;20236;-90
2024/03/17 07:18:56;;;;;;;1.13;1.13;;;;;;;;;;5065208;28;20219;-87
2024/03/17 07:21:22;;;;;;;0.50;0.50;;;;;;;;;;5051056;28;20231;-86
2024/03/17 07:23:48;;;;;;;1.40;1.30;;;;;;;;;;5084325;28;20236;-87
2024/03/17 07:26:14;;;;;;;1.27;0.93;;;;;;;;;;5066184;28;20229;-86
2024/03/17 07:28:40;;;;;;;17.23;0.73;;;;;;;;;;5057404;28;20233;-87
2024/03/17 07:31:08;;;;;;;4.00;1.13;;;;;;;;;;5082493;28;20346;-85
2024/03/17 07:33:35;;;;;;;0.93;0.93;;;;;;;;;;5066863;28;20205;-84
2024/03/17 07:36:02;;;;;;;0.80;0.80;;;;;;;;;;5066327;28;20262;-87
2024/03/17 07:38:28;;;;;;;5.17;1.13;;;;;;;;;;5065713;28;20236;-88
2024/03/17 07:41:05;;;;;;;0.20;0.20;;;;;;;;;;5064769;28;20594;-89
2024/03/17 07:43:32;;;;;;;3.00;0.80;;;;;;;;;;5058377;28;20224;-87
2024/03/17 07:46:02;;;;;;;1.03;1.03;;;;;;;;;;5058178;28;20211;-89
2024/03/17 07:48:31;;;;;;;0.43;0.43;;;;;;;;;;5059430;28;20292;-87
2024/03/17 07:50:58;;;;;;;0.60;0.60;;;;;;;;;;5065366;28;20232;-87
2024/03/17 07:53:24;;;;;;;0.93;0.93;;;;;;;;;;5081483;28;20711;-87
2024/03/17 07:56:04;;;;;;;0.90;0.90;;;;;;;;;;5063717;28;20224;-88
2024/03/17 07:58:32;;;;;;;1.13;1.13;;;;;;;;;;5081032;28;20228;-88
2024/03/17 08:00:59;;;;;;;1.07;0.97;;;;;;;;;;5081186;28;20346;-88
2024/03/17 08:03:26;;;;;;;1.37;1.27;;;;;;;;;;5084195;28;20192;-87
2024/03/17 08:05:52;;;;;;;0.80;0.67;;;;;;;;;;5081861;28;20243;-89
2024/03/17 08:08:18;;;;;;;0.30;0.30;;;;;;;;;;5064834;28;20755;-86
2024/03/17 08:10:47;;;;;;;1.30;1.20;;;;;;;;;;5065261;28;20748;-87
2024/03/17 08:13:15;;;;;;;0.80;0.80;;;;;;;;;;5063883;28;20278;-87
2024/03/17 08:15:43;;;;;;;6.93;1.53;;;;;;;;;;5066560;28;20295;-86
2024/03/17 08:18:09;;;;;;;1.60;0.83;;;;;;;;;;5064183;28;20232;-85
2024/03/17 08:20:39;;;;;;;0.63;0.63;;;;;;;;;;5065401;28;20256;-86
2024/03/17 08:23:05;;;;;;;1.37;1.13;;;;;;;;;;5064079;28;20712;-86
2024/03/17 08:25:32;;;;;;;1.87;1.77;;;;;;;;;;5046616;28;20259;-88
2024/03/17 08:27:58;;;;;;;0.70;0.70;;;;;;;;;;5061314;28;20815;-88
2024/03/17 08:30:24;;;;;;;7.90;1.50;;;;;;;;;;5078859;28;20235;-86
2024/03/17 08:32:50;;;;;;;0.57;0.57;;;;;;;;;;5042212;28;20232;-86
2024/03/17 08:35:16;;;;;;;24.17;1.17;;;;;;;;;;5061336;28;20278;-87
2024/03/17 08:37:43;;;;;;;2.50;1.50;;;;;;;;;;5052920;28;20289;-87
2024/03/17 08:40:10;;;;;;;2.20;1.97;;;;;;;;;;5050950;28;20263;-87
2024/03/17 08:42:37;;;;;;;0.80;0.80;;;;;;;;;;5038069;28;20235;-86
2024/03/17 08:45:03;;;;;;;4.10;1.37;;;;;;;;;;5059984;28;20265;-89
2024/03/17 08:47:29;;;;;;;0.90;0.90;;;;;;;;;;5043730;28;20694;-89
2024/03/17 08:49:55;;;;;;;1.77;0.93;;;;;;;;;;5055267;28;20231;-87
2024/03/17 08:52:22;;;;;;;1.23;1.07;;;;;;;;;;5062032;28;20232;-88
2024/03/17 08:54:48;;;;;;;1.93;1.10;;;;;;;;;;5064703;28;20208;-88
2024/03/17 08:57:14;;;;;;;1.43;1.33;;;;;;;;;;5064458;28;20228;-88
2024/03/17 08:59:40;;;;;;;1.00;1.00;;;;;;;;;;5065177;28;20303;-89
2024/03/17 09:02:12;;;;;;;0.77;0.70;;;;;;;;;;5064059;28;20243;-89
2024/03/17 09:04:38;;;;;;;1.23;1.23;;;;;;;;;;5084118;28;20236;-89
2024/03/17 09:07:07;;;;;;;2.20;1.10;;;;;;;;;;5056531;28;20200;-88
2024/03/17 09:09:35;;;;;;;1.93;1.03;;;;;;;;;;5082813;28;20236;-87
2024/03/17 09:12:03;;;;;;;1.00;0.87;;;;;;;;;;5081444;28;20289;-91
2024/03/17 09:14:31;;;;;;;10.43;1.90;;;;;;;;;;5065709;28;20642;-88
2024/03/17 09:16:58;;;;;;;1.50;1.20;;;;;;;;;;5065404;28;20319;-90
2024/03/17 09:19:24;;;;;;;1.07;1.07;;;;;;;;;;5065187;28;20236;-88
2024/03/17 09:21:58;;;;;;;1.17;1.10;;;;;;;;;;5048523;28;20284;-88
2024/03/17 09:24:24;;;;;;;0.87;0.87;;;;;;;;;;5065774;28;20371;-88
2024/03/17 09:26:50;;;;;;;4.07;1.60;;;;;;;;;;5047735;28;20224;-91
2024/03/17 09:29:16;;;;;;;1.50;0.87;;;;;;;;;;5048037;28;20236;-90
2024/03/17 09:31:42;;;;;;;2.60;2.37;;;;;;;;;;5063499;28;20755;-88
2024/03/17 09:34:09;;;;;;;3.53;1.93;;;;;;;;;;5081577;28;20258;-88
2024/03/17 09:36:35;;;;;;;2.57;2.37;;;;;;;;;;5066081;28;20495;-89
2024/03/17 09:39:04;;;;;;;1.33;1.20;;;;;;;;;;5065930;28;20224;-91
2024/03/17 09:41:30;;;;;;;2.87;2.50;;;;;;;;;;5065805;28;20281;-89
2024/03/17 09:43:59;;;;;;;2.40;1.27;;;;;;;;;;5065185;28;20236;-90
2024/03/17 09:46:29;;;;;;;2.00;1.73;;;;;;;;;;5080802;28;20478;-89
2024/03/17 09:48:55;;;;;;;2.37;2.10;;;;;;;;;;5065485;28;20537;-89
2024/03/17 09:51:25;;;;;;;1.00;0.90;;;;;;;;;;5051678;28;20228;-87
2024/03/17 09:53:52;;;;;;;2.97;2.57;;;;;;;;;;5085676;28;20270;-88
2024/03/17 09:56:19;;;;;;;2.37;2.17;;;;;;;;;;5051483;28;20224;-88
2024/03/17 09:58:46;;;;;;;3.40;1.40;;;;;;;;;;5085248;28;20232;-89
2024/03/17 10:01:12;;;;;;;3.57;3.27;;;;;;;;;;5066141;28;20587;-88
2024/03/17 10:03:45;;;;;;;1.83;1.77;;;;;;;;;;5066606;28;20204;-90
2024/03/17 10:06:15;;;;;;;15.17;1.60;;;;;;;;;;5082740;28;20247;-89
2024/03/17 10:08:42;;;;;;;1.37;1.27;;;;;;;;;;5084057;28;20793;-89
2024/03/17 10:11:08;;;;;;;1.17;1.17;;;;;;;;;;5068050;28;20252;-90
2024/03/17 10:13:34;;;;;;;4.27;3.90;;;;;;;;;;5068853;28;20264;-88
2024/03/17 10:16:01;;;;;;;2.10;1.83;;;;;;;;;;5068488;28;20201;-89
2024/03/17 10:18:31;;;;;;;2.53;1.37;;;;;;;;;;5068897;28;20200;-89
2024/03/17 10:20:59;;;;;;;2.27;2.17;;;;;;;;;;5086536;28;20221;-87
2024/03/17 10:23:25;;;;;;;4.30;2.60;;;;;;;;;;5085727;28;21125;-87
2024/03/17 10:25:51;;;;;;;7.30;1.97;;;;;;;;;;5083887;28;20236;-89
2024/03/17 10:28:21;;;;;;;2.63;1.53;;;;;;;;;;5050908;28;20583;-87
2024/03/17 10:31:00;;;;;;;3.73;2.20;;;;;;;;;;5061698;28;20216;-88
2024/03/17 10:33:27;;;;;;;2.10;1.43;;;;;;;;;;5041956;28;20316;-88
2024/03/17 10:36:05;;;;;;;3.43;1.73;;;;;;;;;;5066663;28;20224;-88
2024/03/17 10:38:31;;;;;;;1.77;1.67;;;;;;;;;;5082800;28;20311;-89
2024/03/17 10:40:57;;;;;;;3.67;1.53;;;;;;;;;;5066066;28;21119;-88
2024/03/17 10:43:27;;;;;;;15.23;3.43;;;;;;;;;;5084152;28;20232;-88
2024/03/17 10:45:54;;;;;;;1.17;1.07;;;;;;;;;;5086241;28;20245;-89
2024/03/17 10:48:24;;;;;;;2.93;1.70;;;;;;;;;;5051450;28;20204;-88
2024/03/17 10:50:51;;;;;;;2.13;1.93;;;;;;;;;;5085945;28;20232;-87
2024/03/17 10:53:25;;;;;;;2.20;2.10;;;;;;;;;;5058021;28;20228;-89
2024/03/17 10:55:57;;;;;;;7.37;2.13;;;;;;;;;;5083633;28;20223;-89
2024/03/17 10:58:30;;;;;;;4.30;2.47;;;;;;;;;;5058218;28;20285;-89
2024/03/17 11:00:57;;;;;;;3.03;1.33;;;;;;;;;;5084434;28;20197;-88
2024/03/17 11:03:24;;;;;;;4.93;2.17;;;;;;;;;;5068250;28;20203;-89
2024/03/17 11:05:52;;;;;;;1.40;1.30;;;;;;;;;;5083248;28;21505;-88
2024/03/17 11:08:18;;;;;;;2.27;1.17;;;;;;;;;;5067525;28;20237;-89
2024/03/17 11:10:54;;;;;;;2.97;2.77;;;;;;;;;;5084613;28;20773;-88
2024/03/17 11:13:27;;;;;;;3.10;2.80;;;;;;;;;;5083314;28;20232;-89
2024/03/17 11:16:04;;;;;;;4.10;2.87;;;;;;;;;;5085547;28;20243;-91
2024/03/17 11:18:40;;;;;;;4.30;1.87;;;;;;;;;;5084960;28;20320;-90
2024/03/17 11:21:11;;;;;;;6.40;2.67;;;;;;;;;;5058674;28;20314;-89
2024/03/17 11:23:38;;;;;;;1.70;1.60;;;;;;;;;;5084928;28;20774;-88
2024/03/17 11:26:05;;;;;;;2.67;1.60;;;;;;;;;;5083829;28;20239;-88
2024/03/17 11:28:52;;;;;;;3.67;2.63;;;;;;;;;;5066774;28;20232;-89
2024/03/17 11:31:37;;;;;;;2.00;1.20;;;;;;;;;;5081715;28;20236;-89
2024/03/17 11:34:07;;;;;;;1.90;1.50;;;;;;;;;;5067024;28;20301;-88
2024/03/17 11:36:38;;;;;;;2.00;1.83;;;;;;;;;;5044040;28;20242;-88
2024/03/17 11:39:19;;;;;;;2.60;1.47;;;;;;;;;;5065704;28;20247;-89
2024/03/17 11:41:47;;;;;;;5.30;2.60;;;;;;;;;;5084463;28;20236;-88
2024/03/17 11:44:25;;;;;;;2.40;2.20;;;;;;;;;;5085234;28;20386;-89
2024/03/17 11:47:01;;;;;;;2.83;1.70;;;;;;;;;;5073992;28;20232;-89
2024/03/17 11:49:28;;;;;;;2.43;2.23;;;;;;;;;;5084030;28;20235;-89
2024/03/17 11:51:55;;;;;;;6.37;2.33;;;;;;;;;;5066494;28;20244;-89
2024/03/17 11:54:27;;;;;;;1.93;1.73;;;;;;;;;;5067524;28;20212;-90
2024/03/17 11:56:54;;;;;;;4.37;1.93;;;;;;;;;;5082016;28;20263;-89
2024/03/17 11:59:22;;;;;;;3.70;2.23;;;;;;;;;;5066654;28;20224;-89
2024/03/17 12:01:52;;;;;;;7.53;1.67;;;;;;;;;;5083254;28;20224;-89
2024/03/17 12:04:19;;;;;;;2.10;1.97;;;;;;;;;;5066306;28;20272;-87
2024/03/17 12:06:46;;;;;;;1.17;1.07;;;;;;;;;;5067247;28;20208;-88
2024/03/17 12:09:20;;;;;;;3.73;2.27;;;;;;;;;;5057173;28;20275;-88
2024/03/17 12:11:51;;;;;;;3.03;2.53;;;;;;;;;;5055940;28;20343;-89
2024/03/17 12:14:20;;;;;;;2.67;2.40;;;;;;;;;;5066025;28;20339;-87
2024/03/17 12:16:48;;;;;;;1.97;1.87;;;;;;;;;;5058694;28;20228;-88
2024/03/17 12:19:17;;;;;;;2.17;1.97;;;;;;;;;;5065777;28;20232;-87
2024/03/17 12:21:49;;;;;;;3.50;2.90;;;;;;;;;;5065230;28;20759;-90
2024/03/17 12:24:19;;;;;;;1.83;1.53;;;;;;;;;;5083304;28;20228;-90
2024/03/17 12:26:48;;;;;;;2.40;2.20;;;;;;;;;;5065852;28;20240;-88
2024/03/17 12:29:27;;;;;;;3.20;2.47;;;;;;;;;;5082859;28;20255;-89
2024/03/17 12:31:53;;;;;;;2.83;2.40;;;;;;;;;;5083415;28;20299;-89
2024/03/17 12:34:20;;;;;;;2.73;2.53;;;;;;;;;;5066336;28;20254;-88
2024/03/17 12:36:47;;;;;;;2.80;2.60;;;;;;;;;;5050267;28;20314;-88
2024/03/17 12:39:23;;;;;;;8.40;2.13;;;;;;;;;;5065257;28;20294;-90
2024/03/17 12:42:03;;;;;;;3.00;2.03;;;;;;;;;;5083891;28;20224;-89
2024/03/17 12:44:29;;;;;;;2.70;2.03;;;;;;;;;;5057551;28;20322;-88
2024/03/17 12:47:00;;;;;;;2.07;1.70;;;;;;;;;;5065258;28;20535;-88
2024/03/17 12:49:26;;;;;;;1.57;1.47;;;;;;;;;;5082443;28;20288;-92
2024/03/17 12:51:55;;;;;;;4.03;3.27;;;;;;;;;;5082481;28;20273;-88
2024/03/17 12:54:27;;;;;;;2.33;2.00;;;;;;;;;;5067113;28;20265;-91
2024/03/17 13:02:47;;;;;;;2.00;1.87;;;;;;;;;;5072915;28;20808;-92
2024/03/17 13:05:25;;;;;;;2.30;2.10;;;;;;;;;;5055147;28;20278;-91
2024/03/17 13:07:57;;;;;;;3.90;2.87;;;;;;;;;;5069210;28;20230;-91
2024/03/17 13:10:25;;;;;;;3.07;2.00;;;;;;;;;;5058678;28;20280;-93
2024/03/17 13:13:03;;;;;;;1.80;1.33;;;;;;;;;;5063055;28;20266;-92
2024/03/17 13:15:30;;;;;;;3.37;2.53;;;;;;;;;;5084552;28;20205;-91
2024/03/17 13:18:03;;;;;;;3.00;2.13;;;;;;;;;;5086256;28;20274;-91
2024/03/17 13:20:30;;;;;;;2.47;1.80;;;;;;;;;;5069000;28;20224;-88
2024/03/17 13:23:41;;;;;;;3.47;2.13;;;;;;;;;;5068013;28;20342;-94
2024/03/17 13:26:08;;;;;;;2.73;2.10;;;;;;;;;;5075869;28;20338;-91
2024/03/17 13:28:34;;;;;;;3.33;1.83;;;;;;;;;;5060935;28;20336;-93
2024/03/17 13:31:05;;;;;;;3.30;2.20;;;;;;;;;;5069140;28;20305;-91
2024/03/17 13:33:32;;;;;;;7.00;2.40;;;;;;;;;;5069565;28;20204;-91
2024/03/17 13:35:58;;;;;;;2.90;1.43;;;;;;;;;;5069024;28;20237;-92
2024/03/17 13:38:27;;;;;;;4.17;2.50;;;;;;;;;;5057704;28;20266;-92
2024/03/17 13:40:56;;;;;;;3.33;2.17;;;;;;;;;;5068960;28;20282;-93
2024/03/17 13:43:28;;;;;;;3.30;2.60;;;;;;;;;;5058862;28;20236;-92
2024/03/17 13:45:54;;;;;;;1.60;1.50;;;;;;;;;;5038737;28;20203;-93
2024/03/17 13:48:21;;;;;;;3.50;2.93;;;;;;;;;;5069643;28;20209;-91
2024/03/17 13:50:52;;;;;;;2.07;1.90;;;;;;;;;;5086445;28;20234;-91
2024/03/17 13:53:23;;;;;;;1.60;1.50;;;;;;;;;;5052672;28;20228;-93
2024/03/17 13:55:51;;;;;;;1.83;1.73;;;;;;;;;;5053565;28;20243;-93
2024/03/17 13:58:18;;;;;;;2.07;1.97;;;;;;;;;;5058667;28;20232;-92
2024/03/17 14:00:44;;;;;;;2.23;1.87;;;;;;;;;;5051593;28;20216;-92
2024/03/17 14:03:20;;;;;;;2.13;1.70;;;;;;;;;;5055614;28;20232;-91
2024/03/17 14:05:46;;;;;;;6.93;2.03;;;;;;;;;;5069533;28;20362;-92
2024/03/17 14:08:15;;;;;;;4.23;2.47;;;;;;;;;;5065692;28;20236;-92
2024/03/17 14:10:47;;;;;;;3.30;2.53;;;;;;;;;;5042355;28;20236;-92
2024/03/17 14:13:18;;;;;;;3.53;1.80;;;;;;;;;;5068086;28;20236;-93
2024/03/17 14:15:49;;;;;;;3.70;1.97;;;;;;;;;;5053228;28;20212;-92
2024/03/17 14:18:18;;;;;;;2.60;2.40;;;;;;;;;;5054547;28;20315;-91
2024/03/17 14:20:44;;;;;;;2.37;2.17;;;;;;;;;;5044098;28;20225;-92
2024/03/17 14:23:13;;;;;;;7.20;2.83;;;;;;;;;;5086536;28;20228;-92
2024/03/17 14:25:48;;;;;;;2.33;2.07;;;;;;;;;;5059382;28;20224;-92
2024/03/17 14:28:19;;;;;;;2.87;2.63;;;;;;;;;;5050342;28;20521;-91
2024/03/17 14:30:48;;;;;;;2.50;2.30;;;;;;;;;;5067024;28;20228;-91
2024/03/17 14:33:16;;;;;;;1.40;1.30;;;;;;;;;;5084655;28;20312;-92
2024/03/17 14:35:44;;;;;;;4.07;2.57;;;;;;;;;;5068114;28;20278;-92
2024/03/17 14:38:10;;;;;;;2.50;1.70;;;;;;;;;;5056148;28;20232;-91
2024/03/17 14:40:41;;;;;;;2.33;2.03;;;;;;;;;;5084244;28;20228;-92
2024/03/17 14:43:10;;;;;;;2.17;1.97;;;;;;;;;;5084299;28;20266;-92
2024/03/17 14:45:36;;;;;;;2.20;2.00;;;;;;;;;;5068705;28;20533;-94
2024/03/17 14:48:14;;;;;;;2.90;2.10;;;;;;;;;;5038785;28;20236;-92
2024/03/17 14:50:43;;;;;;;1.60;1.50;;;;;;;;;;5060817;28;20232;-91
2024/03/17 14:53:42;;;;;;;4.33;2.50;;;;;;;;;;5053716;28;20205;-91
2024/03/17 14:56:01;;;;;;;2.73;2.57;;;;;;;;;;5083634;28;20255;-92
2024/03/17 14:58:33;;;;;;;1.67;1.57;;;;;;;;;;5059945;28;20236;-91